KBRO/BRO METAR and TAF weather

Enter ICAO airport designator
Station Type Date Time Source
KBRO METAR 2020/04/05 17:53 UTC NOAA

KBRO 051753Z 35007KT 10SM OVC006 19/17 A2999 RMK AO2 SLP153 60002 T01940172 10211 20167 50005


Station Type Date Time Source
KBRO Decoded METAR 2020/04/05 17:53 UTC NOAA

BROWNSVILLE/SOUTH PADRE IS, TX, United States (KBRO) 25-54N 97-25W 5M
Apr 05, 2020 - 01:53 PM EDT / 2020.04.05 1753 UTC
Wind: from the N (350 degrees) at 8 MPH (7 KT):0
Visibility: 10 mile(s):0
Sky conditions: overcast
Temperature: 66.9 F (19.4 C)
Dew Point: 63.0 F (17.2 C)
Relative Humidity: 87%
Pressure (altimeter): 29.99 in. Hg (1015 hPa)
Pressure tendency: 0.01 inches (0.5 hPa) higher than three hours ago
ob: KBRO 051753Z 35007KT 10SM OVC006 19/17 A2999 RMK AO2 SLP153 60002 T01940172 10211 20167 50005
cycle: 18

Station Type Date Time Source
KBRO TAF 2020/04/05 18:57 UTC NOAA

TAF KBRO 051748Z 0518/0618 36008KT 6SM -DZ BR OVC008
FM060600 03005KT 3SM -DZ BR OVC005
FM061500 10008KT P6SM BKN015

Example: see airport list